Time;durP1;ratioP1;P1;durP2;ratioP2;P2;SDS_P1;SDS_P2;PMS_P1;PMS_P2;Temp;Humidity;BMP_temperature;BMP_pressure;BME280_temperature;BME280_humidity;BME280_pressure;Samples;Min_cycle;Max_cycle;Signal;HPM_P1;HPM_P2
2023/05/06 00:00:33;;;;;;;3.23;3.03;;;14.20;97.30;;;;;;5013583;28;20668;-88
2023/05/06 00:03:01;;;;;;;4.40;3.57;;;14.20;97.30;;;;;;5004422;28;20271;-86
2023/05/06 00:05:27;;;;;;;10.73;4.07;;;14.10;97.30;;;;;;5027641;28;20197;-91
2023/05/06 00:07:52;;;;;;;4.37;4.07;;;14.10;97.30;;;;;;5027597;28;20464;-88
2023/05/06 00:10:18;;;;;;;2.87;2.60;;;14.10;97.30;;;;;;5019184;28;20220;-90
2023/05/06 00:12:44;;;;;;;7.53;3.03;;;14.10;97.30;;;;;;5033391;28;20180;-89
2023/05/06 00:15:10;;;;;;;5.60;3.73;;;14.10;97.30;;;;;;5028635;28;20212;-90
2023/05/06 00:17:35;;;;;;;8.60;3.47;;;14.10;97.30;;;;;;5040953;28;20193;-89
2023/05/06 00:20:02;;;;;;;5.93;3.97;;;14.10;97.30;;;;;;5047229;28;20483;-87
2023/05/06 00:22:27;;;;;;;6.80;3.33;;;14.00;97.30;;;;;;5023644;28;20233;-89
2023/05/06 00:24:53;;;;;;;6.40;4.57;;;14.00;97.30;;;;;;5029699;28;20455;-90
2023/05/06 00:27:18;;;;;;;4.23;3.97;;;14.00;97.30;;;;;;5035760;28;20217;-90
2023/05/06 00:29:44;;;;;;;2.43;2.27;;;14.00;97.30;;;;;;5013315;28;20179;-86
2023/05/06 00:32:10;;;;;;;2.93;2.80;;;14.10;97.30;;;;;;4997456;28;20235;-86
2023/05/06 00:34:36;;;;;;;4.83;3.90;;;14.10;97.30;;;;;;5000454;28;20555;-86
2023/05/06 00:37:02;;;;;;;6.90;4.60;;;14.10;97.30;;;;;;5014928;28;20185;-87
2023/05/06 00:39:28;;;;;;;15.33;6.63;;;14.10;97.30;;;;;;4998254;28;20557;-87
2023/05/06 00:41:58;;;;;;;5.70;3.80;;;14.10;97.30;;;;;;4998725;28;20440;-86
2023/05/06 00:44:24;;;;;;;4.17;3.03;;;14.10;97.30;;;;;;5015155;28;20428;-88
2023/05/06 00:46:49;;;;;;;3.90;3.70;;;14.10;97.30;;;;;;5016671;28;20455;-87
2023/05/06 00:49:15;;;;;;;4.33;4.00;;;14.10;97.30;;;;;;5002278;28;20564;-86
2023/05/06 00:51:40;;;;;;;8.10;4.57;;;14.10;97.30;;;;;;4994319;28;20177;-85
2023/05/06 00:54:06;;;;;;;3.20;2.70;;;14.00;97.30;;;;;;4999784;28;20683;-85
2023/05/06 00:56:31;;;;;;;4.03;3.70;;;14.00;97.30;;;;;;4998383;28;20180;-88
2023/05/06 00:58:58;;;;;;;6.30;4.13;;;14.00;97.30;;;;;;4998054;28;20173;-86
2023/05/06 01:01:24;;;;;;;6.37;3.20;;;14.00;97.30;;;;;;4994260;28;20177;-86
2023/05/06 01:03:53;;;;;;;6.83;4.10;;;14.00;97.30;;;;;;5002021;28;20447;-85
2023/05/06 01:06:44;;;;;;;10.90;3.77;;;14.00;97.30;;;;;;5026086;28;20420;-87
2023/05/06 01:09:24;;;;;;;9.13;4.03;;;14.00;97.30;;;;;;4995987;28;20420;-85
2023/05/06 01:12:03;;;;;;;4.97;4.67;;;14.00;97.30;;;;;;5000711;28;20513;-85
2023/05/06 01:14:56;;;;;;;5.83;4.60;;;14.00;97.30;;;;;;4989678;28;20438;-86
2023/05/06 01:17:25;;;;;;;10.10;5.40;;;13.90;97.30;;;;;;5013997;28;20566;-86
2023/05/06 01:19:55;;;;;;;3.50;3.27;;;14.00;97.30;;;;;;5004852;28;20411;-86
2023/05/06 01:22:23;;;;;;;3.30;3.00;;;14.00;97.30;;;;;;4995804;28;20427;-86
2023/05/06 01:24:49;;;;;;;6.77;4.63;;;14.00;97.30;;;;;;5016539;28;20440;-86
2023/05/06 01:27:15;;;;;;;4.10;2.67;;;14.00;97.30;;;;;;5006274;28;20612;-86
2023/05/06 01:29:42;;;;;;;3.67;3.47;;;14.00;97.30;;;;;;5016353;28;20199;-86
2023/05/06 01:32:29;;;;;;;4.87;4.40;;;14.00;97.30;;;;;;5027258;28;20427;-86
2023/05/06 01:35:06;;;;;;;9.40;5.03;;;14.00;97.30;;;;;;5009510;28;20467;-85
2023/05/06 01:37:45;;;;;;;2.53;2.33;;;14.00;97.30;;;;;;5010761;28;20965;-86
2023/05/06 01:40:13;;;;;;;5.67;3.60;;;14.00;97.30;;;;;;5002451;28;20934;-85
2023/05/06 01:42:39;;;;;;;3.30;3.10;;;13.90;97.30;;;;;;4997490;28;20498;-86
2023/05/06 01:45:06;;;;;;;12.00;4.67;;;13.90;97.30;;;;;;5002585;28;20455;-86
2023/05/06 01:47:32;;;;;;;4.20;3.60;;;13.90;97.30;;;;;;5004999;28;20521;-85
2023/05/06 01:49:58;;;;;;;10.37;5.63;;;13.90;97.30;;;;;;5012908;28;20792;-86
2023/05/06 01:52:25;;;;;;;9.00;3.80;;;13.80;97.30;;;;;;4996383;28;20859;-86
2023/05/06 01:54:50;;;;;;;6.40;2.63;;;13.80;97.30;;;;;;5006287;28;20436;-86
2023/05/06 01:57:16;;;;;;;8.13;5.67;;;13.80;97.30;;;;;;4998832;28;20529;-86
2023/05/06 01:59:41;;;;;;;4.70;3.20;;;13.80;97.30;;;;;;4993215;28;20189;-86
2023/05/06 02:02:07;;;;;;;7.00;3.23;;;13.70;97.30;;;;;;4999406;28;20235;-87
2023/05/06 02:04:32;;;;;;;5.43;3.90;;;13.70;97.30;;;;;;4993085;28;20680;-86
2023/05/06 02:06:58;;;;;;;5.17;4.90;;;13.70;97.30;;;;;;4992655;28;20220;-87
2023/05/06 02:09:23;;;;;;;7.33;5.43;;;13.70;97.30;;;;;;5000767;28;20181;-87
2023/05/06 02:11:49;;;;;;;9.17;4.40;;;13.70;97.30;;;;;;5017360;28;20177;-86
2023/05/06 02:14:14;;;;;;;5.47;5.00;;;13.70;97.30;;;;;;5000925;28;20685;-87
2023/05/06 02:16:40;;;;;;;7.60;6.70;;;13.60;97.30;;;;;;4999251;28;20557;-86
2023/05/06 02:19:05;;;;;;;15.30;8.83;;;13.60;97.30;;;;;;5000976;28;20221;-86
2023/05/06 02:21:31;;;;;;;13.67;6.40;;;13.60;97.30;;;;;;5000195;28;20264;-86
2023/05/06 02:23:57;;;;;;;10.37;4.20;;;13.50;97.30;;;;;;5001135;28;20235;-86
2023/05/06 02:26:23;;;;;;;5.77;4.17;;;13.50;97.30;;;;;;5000501;28;20442;-86
2023/05/06 02:28:48;;;;;;;5.53;4.23;;;13.50;97.30;;;;;;5006582;28;20191;-86
2023/05/06 02:31:14;;;;;;;7.60;4.80;;;13.50;97.30;;;;;;5010842;28;20487;-86
2023/05/06 02:33:40;;;;;;;11.50;5.23;;;13.50;97.30;;;;;;4992095;28;20781;-87
2023/05/06 02:36:06;;;;;;;4.80;3.80;;;13.40;97.30;;;;;;5013803;28;20428;-87
2023/05/06 02:38:31;;;;;;;4.53;3.70;;;13.40;97.30;;;;;;4992423;28;20671;-88
2023/05/06 02:40:57;;;;;;;11.97;8.43;;;13.40;97.30;;;;;;4993900;28;20180;-87
2023/05/06 02:43:22;;;;;;;5.90;4.60;;;13.30;97.30;;;;;;4998383;28;20187;-87
2023/05/06 02:45:47;;;;;;;3.37;3.10;;;13.30;97.30;;;;;;4997046;28;20240;-87
2023/05/06 02:48:13;;;;;;;6.00;5.00;;;13.20;97.30;;;;;;5012040;28;20236;-86
2023/05/06 02:50:38;;;;;;;7.07;4.73;;;13.20;97.30;;;;;;4996293;28;20181;-87
2023/05/06 02:53:04;;;;;;;6.93;4.20;;;13.20;97.30;;;;;;5022385;28;20646;-86
2023/05/06 02:55:33;;;;;;;6.73;5.73;;;13.20;97.30;;;;;;4999425;28;20173;-87
2023/05/06 02:57:58;;;;;;;10.37;5.80;;;13.20;97.30;;;;;;5008023;28;20189;-87
2023/05/06 03:00:24;;;;;;;9.40;4.90;;;13.10;97.30;;;;;;4999649;28;20483;-87
2023/05/06 03:02:49;;;;;;;7.57;4.70;;;13.10;97.30;;;;;;5007567;28;20180;-87
2023/05/06 03:05:15;;;;;;;8.33;5.23;;;13.10;97.30;;;;;;5007561;28;20208;-86
2023/05/06 03:07:40;;;;;;;10.23;5.67;;;13.10;97.30;;;;;;5007293;28;20258;-89
2023/05/06 03:10:06;;;;;;;6.33;4.80;;;13.10;97.30;;;;;;5007326;28;20187;-87
2023/05/06 03:12:31;;;;;;;4.57;3.57;;;13.10;97.30;;;;;;4997579;28;20671;-86
2023/05/06 03:14:57;;;;;;;7.10;4.80;;;13.10;97.30;;;;;;4996137;28;20201;-87
2023/05/06 03:17:22;;;;;;;8.23;5.20;;;13.10;97.30;;;;;;5013136;28;20212;-86
2023/05/06 03:19:49;;;;;;;6.30;4.47;;;13.10;97.30;;;;;;5003898;28;20857;-87
2023/05/06 03:22:14;;;;;;;13.57;6.40;;;13.10;97.30;;;;;;5021105;28;20277;-86
2023/05/06 03:24:40;;;;;;;11.83;5.20;;;13.10;97.30;;;;;;5000172;28;20545;-86
2023/05/06 03:27:05;;;;;;;5.97;5.70;;;13.20;97.30;;;;;;4999167;28;20212;-85
2023/05/06 03:29:31;;;;;;;3.57;3.37;;;13.20;97.30;;;;;;5003774;28;20212;-86
2023/05/06 03:31:56;;;;;;;7.33;3.60;;;13.20;97.30;;;;;;5027817;28;20558;-86
2023/05/06 03:34:22;;;;;;;6.43;3.97;;;13.20;97.30;;;;;;5012590;28;20231;-86
2023/05/06 03:36:47;;;;;;;5.93;4.53;;;13.30;97.30;;;;;;5000748;28;20679;-86
2023/05/06 03:39:13;;;;;;;5.43;4.47;;;13.30;97.30;;;;;;4998917;28;20187;-86
2023/05/06 03:41:38;;;;;;;6.30;4.43;;;13.30;97.30;;;;;;5002940;28;20694;-86
2023/05/06 03:44:04;;;;;;;5.30;3.77;;;13.30;97.30;;;;;;4997644;28;20217;-88
2023/05/06 03:46:30;;;;;;;15.30;8.17;;;13.30;97.30;;;;;;4995077;28;20220;-86
2023/05/06 03:48:55;;;;;;;6.07;5.00;;;13.30;97.30;;;;;;5003428;28;20170;-86
2023/05/06 03:51:21;;;;;;;8.73;5.60;;;13.30;97.30;;;;;;5003746;28;20239;-88
2023/05/06 03:53:46;;;;;;;9.40;6.17;;;13.20;97.30;;;;;;4995478;28;20223;-86
2023/05/06 03:56:12;;;;;;;6.00;4.10;;;13.20;97.30;;;;;;4994445;28;20556;-86
2023/05/06 03:58:37;;;;;;;19.43;5.37;;;13.10;97.30;;;;;;5001298;28;20579;-86
2023/05/06 04:01:03;;;;;;;7.03;5.30;;;13.00;97.30;;;;;;5019991;28;20239;-85
2023/05/06 04:03:29;;;;;;;7.97;6.17;;;13.00;97.30;;;;;;5005256;28;20719;-86
2023/05/06 04:05:54;;;;;;;12.10;5.97;;;13.00;97.30;;;;;;5009867;28;20181;-87
2023/05/06 04:08:20;;;;;;;6.30;5.37;;;13.00;97.30;;;;;;5020922;28;20209;-86
2023/05/06 04:10:45;;;;;;;5.93;5.37;;;13.00;97.30;;;;;;5002713;28;20192;-87
2023/05/06 04:13:11;;;;;;;12.80;5.10;;;12.90;97.30;;;;;;5011931;28;20212;-86
2023/05/06 04:15:37;;;;;;;5.30;4.37;;;12.90;97.30;;;;;;5002857;28;20205;-86
2023/05/06 04:18:04;;;;;;;5.47;4.20;;;12.80;97.30;;;;;;5001819;28;20176;-87
2023/05/06 04:20:30;;;;;;;5.50;3.30;;;12.80;97.30;;;;;;4995590;28;20455;-86
2023/05/06 04:22:55;;;;;;;6.77;4.87;;;12.70;97.30;;;;;;5000693;28;20415;-86
2023/05/06 04:25:21;;;;;;;6.40;4.90;;;12.70;97.30;;;;;;5030446;28;20580;-86
2023/05/06 04:27:47;;;;;;;4.80;3.90;;;12.70;97.30;;;;;;5016796;28;20197;-87
2023/05/06 04:30:13;;;;;;;8.80;4.53;;;12.80;97.30;;;;;;5014049;28;20173;-86
2023/05/06 04:32:39;;;;;;;13.83;7.60;;;12.80;97.30;;;;;;4994511;28;20962;-87
2023/05/06 04:35:05;;;;;;;11.00;5.00;;;12.80;97.30;;;;;;5064175;23;20813;-88
2023/05/06 04:37:31;;;;;;;6.03;3.80;;;12.80;97.30;;;;;;5052155;28;20968;-88
2023/05/06 04:39:56;;;;;;;5.90;4.50;;;12.80;97.30;;;;;;5053426;28;20483;-87
2023/05/06 04:42:22;;;;;;;10.50;6.73;;;12.80;97.30;;;;;;5053693;28;20265;-87
2023/05/06 04:44:48;;;;;;;10.13;6.40;;;12.90;97.30;;;;;;5063744;28;20199;-87
2023/05/06 04:47:14;;;;;;;7.80;4.47;;;12.80;97.30;;;;;;5082093;28;20197;-88
2023/05/06 04:49:40;;;;;;;11.63;5.80;;;12.70;97.30;;;;;;5077868;28;20501;-88
2023/05/06 04:52:06;;;;;;;9.53;6.07;;;12.70;97.30;;;;;;5069812;28;20986;-88
2023/05/06 04:54:31;;;;;;;8.20;4.90;;;12.70;97.30;;;;;;5077037;28;20519;-87
2023/05/06 04:56:57;;;;;;;15.33;9.53;;;12.70;97.30;;;;;;5072848;28;20316;-88
2023/05/06 04:59:22;;;;;;;12.10;5.53;;;12.70;97.30;;;;;;5073386;28;20178;-88
2023/05/06 05:01:48;;;;;;;10.13;7.47;;;12.80;97.30;;;;;;5068409;28;20680;-87
2023/05/06 05:04:13;;;;;;;11.03;7.13;;;12.80;97.30;;;;;;5074282;28;20213;-86
2023/05/06 05:06:39;;;;;;;9.50;6.27;;;12.70;97.30;;;;;;5082314;28;20186;-87
2023/05/06 05:09:04;;;;;;;7.10;5.00;;;12.70;97.30;;;;;;5075105;28;20170;-88
2023/05/06 05:11:30;;;;;;;7.63;6.23;;;12.70;97.30;;;;;;5092065;28;20545;-88
2023/05/06 05:13:56;;;;;;;10.53;6.13;;;12.80;97.30;;;;;;5069374;28;20751;-87
2023/05/06 05:16:21;;;;;;;15.00;6.10;;;12.80;97.30;;;;;;5072880;28;20178;-87
2023/05/06 05:18:47;;;;;;;38.70;7.80;;;12.80;97.30;;;;;;5072088;28;20170;-89
2023/05/06 05:21:12;;;;;;;9.50;6.23;;;12.80;97.30;;;;;;5079698;28;20633;-87
2023/05/06 05:23:38;;;;;;;13.10;5.70;;;12.90;97.30;;;;;;5072944;28;20318;-88
2023/05/06 05:26:03;;;;;;;14.03;7.13;;;12.90;97.30;;;;;;5071772;28;20202;-86
2023/05/06 05:28:29;;;;;;;11.57;7.00;;;12.90;97.30;;;;;;5079995;28;20194;-88
2023/05/06 05:31:01;;;;;;;6.17;4.87;;;13.00;97.30;;;;;;5072853;28;20171;-86
2023/05/06 05:33:26;;;;;;;12.97;8.60;;;13.00;97.30;;;;;;5072519;28;20178;-88
2023/05/06 05:35:52;;;;;;;15.27;5.20;;;13.00;97.30;;;;;;5078525;28;20463;-89
2023/05/06 05:38:17;;;;;;;9.30;6.57;;;13.10;97.30;;;;;;5080903;28;20393;-88
2023/05/06 05:40:43;;;;;;;11.03;5.60;;;13.10;97.30;;;;;;5076899;28;20177;-87
2023/05/06 05:43:10;;;;;;;19.00;5.80;;;13.20;97.30;;;;;;5088030;28;20185;-91
2023/05/06 05:45:36;;;;;;;14.90;7.23;;;13.20;97.30;;;;;;5114299;28;20179;-93
2023/05/06 05:48:01;;;;;;;13.50;7.77;;;13.10;97.30;;;;;;5098570;28;20613;-91
2023/05/06 05:50:28;;;;;;;20.00;9.00;;;13.20;97.30;;;;;;5072786;28;20431;-87
2023/05/06 05:52:54;;;;;;;9.53;5.83;;;13.20;97.30;;;;;;5078138;28;20972;-87
2023/05/06 05:55:20;;;;;;;11.67;7.13;;;13.30;97.30;;;;;;5076019;28;20214;-87
2023/05/06 05:57:45;;;;;;;5.20;4.77;;;13.30;97.30;;;;;;5080049;28;20209;-87
2023/05/06 06:00:11;;;;;;;15.03;6.97;;;13.40;97.30;;;;;;5080977;28;20847;-89
2023/05/06 06:02:37;;;;;;;8.30;4.53;;;13.40;97.30;;;;;;5072312;28;20220;-87
2023/05/06 06:05:03;;;;;;;9.27;5.57;;;13.40;97.30;;;;;;5098831;28;20436;-87
2023/05/06 06:07:28;;;;;;;7.00;5.30;;;13.30;97.30;;;;;;5092375;28;20198;-86
2023/05/06 06:09:54;;;;;;;10.50;7.17;;;13.30;97.30;;;;;;5084200;28;20420;-87
2023/05/06 06:12:20;;;;;;;12.57;7.00;;;13.20;97.30;;;;;;5084173;28;20189;-89
2023/05/06 06:14:46;;;;;;;10.53;6.17;;;13.20;97.30;;;;;;5102036;28;20289;-87
2023/05/06 06:17:13;;;;;;;12.17;4.73;;;13.20;97.30;;;;;;5092303;28;20300;-89
2023/05/06 06:19:39;;;;;;;7.43;6.80;;;13.20;97.30;;;;;;5072377;28;20425;-86
2023/05/06 06:22:04;;;;;;;19.43;8.17;;;13.30;97.30;;;;;;5086812;28;20427;-87
2023/05/06 06:24:33;;;;;;;9.33;6.63;;;13.40;97.30;;;;;;5090349;28;20215;-87
2023/05/06 06:27:01;;;;;;;7.30;6.90;;;13.60;97.30;;;;;;5078265;28;20205;-88
2023/05/06 06:29:27;;;;;;;13.50;6.60;;;13.70;97.30;;;;;;5073600;28;20420;-88
2023/05/06 06:31:54;;;;;;;8.20;4.80;;;13.90;97.30;;;;;;5077490;28;20419;-86
2023/05/06 06:34:20;;;;;;;13.90;5.90;;;14.00;97.30;;;;;;5079465;28;20705;-87
2023/05/06 06:36:46;;;;;;;8.03;4.30;;;14.00;97.30;;;;;;5092473;28;20427;-87
2023/05/06 06:39:12;;;;;;;6.60;4.70;;;13.90;97.30;;;;;;5099420;28;20473;-87
2023/05/06 06:41:37;;;;;;;6.73;5.10;;;13.80;97.30;;;;;;5092381;28;20174;-89
2023/05/06 06:44:03;;;;;;;5.90;5.60;;;13.80;97.30;;;;;;5091171;28;20197;-87
2023/05/06 06:46:29;;;;;;;8.63;5.40;;;13.80;97.30;;;;;;5110012;28;20260;-87
2023/05/06 06:48:55;;;;;;;7.93;4.90;;;13.90;97.30;;;;;;5092198;28;20542;-88
2023/05/06 06:51:20;;;;;;;11.10;7.80;;;13.90;97.30;;;;;;5092032;28;20225;-87
2023/05/06 06:53:47;;;;;;;5.63;4.00;;;13.90;97.30;;;;;;5092008;28;20666;-87
2023/05/06 06:56:14;;;;;;;12.33;6.70;;;13.90;97.30;;;;;;5092280;28;20268;-87
2023/05/06 06:58:40;;;;;;;6.80;4.40;;;13.90;97.30;;;;;;5092159;28;20422;-87
2023/05/06 07:01:06;;;;;;;9.23;4.27;;;13.90;97.30;;;;;;5092394;28;20416;-86
2023/05/06 07:03:31;;;;;;;8.30;6.10;;;13.90;97.30;;;;;;5091697;28;20268;-89
2023/05/06 07:05:57;;;;;;;7.73;5.70;;;13.90;97.30;;;;;;5091819;28;20185;-87
2023/05/06 07:08:22;;;;;;;8.30;5.07;;;13.90;97.30;;;;;;5109997;28;20291;-86
2023/05/06 07:10:47;;;;;;;8.67;6.40;;;13.90;97.30;;;;;;5091902;28;20204;-87
2023/05/06 07:13:13;;;;;;;10.17;6.17;;;13.80;97.30;;;;;;5091566;28;20224;-87
2023/05/06 07:15:39;;;;;;;10.77;5.43;;;13.80;97.30;;;;;;5091883;28;20208;-87
2023/05/06 07:18:05;;;;;;;14.27;5.77;;;13.80;97.30;;;;;;5092141;28;20672;-83
2023/05/06 07:20:30;;;;;;;11.57;7.17;;;13.80;97.30;;;;;;5091984;28;20185;-86
2023/05/06 07:22:56;;;;;;;8.50;4.40;;;13.70;97.30;;;;;;5091449;28;20247;-86
2023/05/06 07:25:21;;;;;;;23.83;7.20;;;13.70;97.30;;;;;;5091076;28;20737;-88
2023/05/06 07:27:47;;;;;;;13.30;8.07;;;13.70;97.30;;;;;;5091690;28;20208;-86
2023/05/06 07:30:13;;;;;;;7.00;6.40;;;13.70;97.30;;;;;;5091779;28;20596;-86
2023/05/06 07:32:40;;;;;;;4.40;4.10;;;13.70;97.30;;;;;;5091201;28;20181;-86
2023/05/06 07:35:05;;;;;;;7.03;4.73;;;13.70;97.30;;;;;;5094737;28;20316;-86
2023/05/06 07:37:31;;;;;;;14.90;6.67;;;13.80;97.30;;;;;;5095149;28;20565;-87
2023/05/06 07:39:57;;;;;;;12.37;6.50;;;13.90;97.30;;;;;;5095328;28;20496;-87
2023/05/06 07:42:22;;;;;;;9.83;6.73;;;14.00;97.30;;;;;;5095518;28;20178;-87
2023/05/06 07:44:48;;;;;;;8.40;5.83;;;14.00;97.30;;;;;;5095040;28;20202;-87
2023/05/06 07:47:24;;;;;;;6.27;3.30;;;14.00;97.30;;;;;;5095209;28;20233;-86
2023/05/06 07:49:50;;;;;;;4.43;4.13;;;14.00;97.30;;;;;;5094966;28;20593;-85
2023/05/06 07:52:15;;;;;;;9.90;5.90;;;14.00;97.30;;;;;;5094978;28;20416;-86
2023/05/06 07:54:41;;;;;;;7.73;7.00;;;14.00;97.30;;;;;;5094437;28;20200;-86
2023/05/06 07:57:06;;;;;;;9.00;6.20;;;14.00;97.30;;;;;;5094849;28;20276;-87
2023/05/06 07:59:32;;;;;;;6.90;5.87;;;14.00;97.30;;;;;;5082301;28;20183;-87
2023/05/06 08:01:57;;;;;;;10.20;5.53;;;14.00;97.30;;;;;;5094472;27;20264;-86
2023/05/06 08:04:23;;;;;;;7.40;5.20;;;13.90;97.30;;;;;;5096494;28;20201;-86
2023/05/06 08:06:48;;;;;;;6.03;5.00;;;13.90;97.30;;;;;;5093817;28;20280;-87
2023/05/06 08:09:14;;;;;;;8.50;6.50;;;13.80;97.30;;;;;;5094733;28;20633;-87
2023/05/06 08:11:39;;;;;;;6.63;3.50;;;13.80;97.30;;;;;;5094615;28;20190;-86
2023/05/06 08:14:05;;;;;;;7.10;6.40;;;13.70;97.30;;;;;;5094394;28;20186;-85
2023/05/06 08:16:30;;;;;;;4.40;3.80;;;13.70;97.30;;;;;;5112684;28;20648;-86
2023/05/06 08:18:56;;;;;;;7.00;4.47;;;13.70;97.30;;;;;;5097430;27;20178;-88
2023/05/06 08:21:21;;;;;;;8.63;3.73;;;13.70;97.30;;;;;;5095020;28;20220;-85
2023/05/06 08:23:47;;;;;;;7.90;4.53;;;13.70;97.30;;;;;;5094541;28;20277;-85
2023/05/06 08:26:12;;;;;;;9.33;5.00;;;13.80;97.30;;;;;;5102251;27;20185;-86
2023/05/06 08:28:38;;;;;;;4.57;3.63;;;13.90;97.30;;;;;;5103680;27;20232;-86
2023/05/06 08:31:03;;;;;;;12.00;4.70;;;14.00;97.30;;;;;;5102308;27;20177;-86
2023/05/06 08:33:29;;;;;;;6.73;3.33;;;14.10;97.30;;;;;;5094601;28;20193;-85
2023/05/06 08:35:57;;;;;;;6.67;4.00;;;14.20;97.30;;;;;;5099902;28;20452;-85
2023/05/06 08:38:24;;;;;;;8.50;4.30;;;14.20;97.30;;;;;;5093944;28;20430;-84
2023/05/06 08:40:52;;;;;;;6.03;4.27;;;14.30;97.30;;;;;;5094269;28;20424;-85
2023/05/06 08:43:20;;;;;;;7.10;4.27;;;14.40;97.30;;;;;;5094406;28;21169;-86
2023/05/06 08:45:45;;;;;;;9.53;4.17;;;14.60;97.30;;;;;;5111449;28;20934;-86
2023/05/06 08:48:11;;;;;;;5.73;4.70;;;14.70;97.30;;;;;;5093774;28;20488;-85
2023/05/06 08:50:42;;;;;;;4.73;3.80;;;14.80;97.30;;;;;;5101392;28;20211;-89
2023/05/06 08:53:14;;;;;;;3.17;2.97;;;14.80;97.30;;;;;;5113799;28;20178;-89
2023/05/06 08:55:41;;;;;;;17.50;5.30;;;14.80;97.30;;;;;;5113607;28;20504;-87
2023/05/06 08:58:07;;;;;;;10.63;4.23;;;14.70;97.30;;;;;;5109640;28;20428;-86
2023/05/06 09:00:34;;;;;;;6.73;3.80;;;14.60;97.30;;;;;;5093660;28;20426;-86
2023/05/06 09:03:00;;;;;;;10.53;5.97;;;14.60;97.30;;;;;;5093996;28;20423;-85
2023/05/06 09:05:27;;;;;;;6.97;3.90;;;14.60;97.30;;;;;;5093235;28;20432;-85
2023/05/06 09:07:52;;;;;;;9.73;5.40;;;14.60;97.30;;;;;;5093700;28;20459;-88
2023/05/06 09:10:18;;;;;;;6.70;4.83;;;14.60;97.30;;;;;;5093798;28;20415;-85
2023/05/06 09:12:44;;;;;;;5.97;4.13;;;14.60;97.30;;;;;;5093530;28;20644;-85
2023/05/06 09:15:10;;;;;;;5.10;3.67;;;14.60;97.30;;;;;;5093353;28;20243;-85
2023/05/06 09:17:35;;;;;;;5.60;4.27;;;14.50;97.30;;;;;;5093368;28;20431;-87
2023/05/06 09:20:01;;;;;;;8.23;4.60;;;14.40;97.30;;;;;;5085027;28;20566;-85
2023/05/06 09:22:28;;;;;;;5.70;3.83;;;14.50;97.30;;;;;;5092248;28;20599;-86
2023/05/06 09:24:55;;;;;;;4.50;3.20;;;14.50;97.30;;;;;;5092877;28;20204;-85
2023/05/06 09:27:23;;;;;;;4.73;4.10;;;14.60;97.30;;;;;;5091910;28;20447;-85
2023/05/06 09:30:11;;;;;;;10.63;4.57;;;14.60;97.30;;;;;;5093204;28;20435;-86
2023/05/06 09:32:37;;;;;;;7.27;4.03;;;14.80;97.30;;;;;;5092909;28;20793;-85
2023/05/06 09:35:02;;;;;;;10.60;5.50;;;14.90;97.30;;;;;;5092839;28;20470;-86
2023/05/06 09:37:28;;;;;;;7.70;5.70;;;15.00;97.30;;;;;;5093076;28;20182;-86
2023/05/06 09:39:56;;;;;;;5.37;4.40;;;15.00;97.30;;;;;;5093301;28;20419;-85
2023/05/06 09:42:26;;;;;;;10.50;6.10;;;15.00;97.30;;;;;;5093405;28;20810;-85
2023/05/06 09:44:59;;;;;;;7.70;4.30;;;15.00;97.30;;;;;;5093565;28;20467;-85
2023/05/06 09:47:26;;;;;;;6.67;3.80;;;15.00;97.30;;;;;;5109648;28;20463;-91
2023/05/06 09:49:57;;;;;;;5.30;4.20;;;15.10;97.30;;;;;;5111519;28;20447;-90
2023/05/06 09:52:22;;;;;;;8.20;5.43;;;15.20;97.30;;;;;;5137521;28;20412;-90
2023/05/06 09:54:50;;;;;;;16.43;4.77;;;15.20;97.30;;;;;;5093015;28;20423;-86
2023/05/06 09:57:17;;;;;;;8.23;4.40;;;15.20;97.30;;;;;;5093133;28;20216;-85
2023/05/06 09:59:43;;;;;;;10.37;4.33;;;15.20;97.30;;;;;;5111331;28;20408;-86
2023/05/06 10:02:12;;;;;;;10.50;4.90;;;15.20;97.30;;;;;;5092872;28;20461;-85
2023/05/06 10:04:40;;;;;;;6.10;3.70;;;15.30;97.30;;;;;;5092638;28;21060;-85
2023/05/06 10:07:11;;;;;;;5.37;4.20;;;15.40;97.30;;;;;;5093153;28;20471;-86
2023/05/06 10:09:38;;;;;;;6.30;4.97;;;15.50;97.30;;;;;;5093051;28;20438;-85
2023/05/06 10:12:07;;;;;;;8.27;4.23;;;15.70;97.30;;;;;;5092676;28;20422;-86
2023/05/06 10:14:33;;;;;;;5.43;4.40;;;15.80;97.30;;;;;;5092639;28;20439;-86
2023/05/06 10:16:59;;;;;;;4.27;4.00;;;15.80;97.30;;;;;;5110743;28;20469;-87
2023/05/06 10:19:26;;;;;;;6.60;3.37;;;15.80;97.30;;;;;;5092458;28;20423;-85
2023/05/06 10:22:05;;;;;;;9.20;5.23;;;15.80;97.30;;;;;;5092404;28;20964;-85
2023/05/06 10:24:35;;;;;;;8.90;4.97;;;15.90;97.30;;;;;;5110583;28;20439;-85
2023/05/06 10:27:04;;;;;;;6.40;4.27;;;16.00;97.30;;;;;;5110418;28;20510;-86
2023/05/06 10:29:34;;;;;;;4.50;3.83;;;16.10;97.30;;;;;;5092264;28;20419;-85
2023/05/06 10:32:02;;;;;;;6.00;3.80;;;16.10;97.30;;;;;;5092288;28;20479;-86
2023/05/06 10:36:58;;;;;;;6.57;5.03;;;16.10;97.30;;;;;;5047601;28;20478;-86
2023/05/06 10:39:25;;;;;;;8.57;5.97;;;16.20;97.30;;;;;;5049658;28;20422;-86
2023/05/06 10:41:50;;;;;;;19.03;5.13;;;16.30;97.30;;;;;;5032389;28;20425;-86
2023/05/06 10:44:16;;;;;;;3.63;2.67;;;16.50;97.30;;;;;;5031885;28;20414;-85
2023/05/06 10:47:11;;;;;;;11.10;4.87;;;16.50;97.30;;;;;;5031178;28;20180;-86
2023/05/06 10:49:36;;;;;;;5.50;3.53;;;16.70;97.30;;;;;;5013306;28;20199;-87
2023/05/06 10:52:11;;;;;;;7.83;4.13;;;16.80;97.30;;;;;;5033244;28;20423;-88
2023/05/06 10:54:48;;;;;;;6.27;4.27;;;16.80;97.30;;;;;;5048342;28;20808;-86
2023/05/06 10:57:14;;;;;;;3.53;3.33;;;17.00;97.30;;;;;;5042920;28;20432;-86
2023/05/06 10:59:45;;;;;;;7.80;4.33;;;17.00;97.30;;;;;;5031901;28;20897;-86
2023/05/06 11:02:11;;;;;;;4.03;3.80;;;17.20;97.30;;;;;;5049510;28;20183;-86
2023/05/06 11:04:37;;;;;;;5.47;2.90;;;17.40;97.30;;;;;;5040147;28;20968;-86
2023/05/06 11:07:12;;;;;;;4.30;3.90;;;17.40;97.30;;;;;;5041758;28;20480;-86
2023/05/06 11:09:58;;;;;;;13.10;5.37;;;17.40;97.30;;;;;;5046062;28;20483;-87
2023/05/06 11:12:47;;;;;;;4.63;4.13;;;17.20;97.10;;;;;;5035731;28;20854;-86
2023/05/06 11:15:20;;;;;;;4.80;3.60;;;16.90;97.30;;;;;;5048280;28;20434;-86
2023/05/06 11:17:45;;;;;;;3.70;3.50;;;16.70;97.30;;;;;;5044679;28;20956;-87
2023/05/06 11:20:19;;;;;;;4.30;2.63;;;16.60;97.30;;;;;;5053669;28;20414;-86
2023/05/06 11:22:44;;;;;;;4.13;3.93;;;16.50;97.30;;;;;;5042605;28;20271;-85
2023/05/06 11:25:10;;;;;;;7.33;4.20;;;16.50;97.30;;;;;;5045741;28;20565;-86
2023/05/06 11:27:36;;;;;;;8.13;4.73;;;16.50;97.30;;;;;;5043415;28;20211;-85
2023/05/06 11:30:03;;;;;;;7.10;4.57;;;16.50;97.30;;;;;;5052224;28;20184;-85
2023/05/06 11:32:28;;;;;;;13.67;6.27;;;16.50;97.30;;;;;;5039225;28;20480;-86
2023/05/06 11:34:57;;;;;;;6.57;3.47;;;16.50;97.30;;;;;;5052923;28;20533;-87
2023/05/06 11:37:25;;;;;;;5.97;3.90;;;16.30;97.30;;;;;;5039050;28;20186;-86
2023/05/06 11:39:50;;;;;;;5.77;4.57;;;16.30;97.30;;;;;;5043565;28;20426;-86
2023/05/06 11:42:24;;;;;;;13.07;7.40;;;16.20;97.30;;;;;;5046213;28;20780;-86
2023/05/06 11:44:51;;;;;;;6.03;5.73;;;16.00;97.30;;;;;;5044327;28;20207;-86
2023/05/06 11:47:21;;;;;;;3.87;3.37;;;15.90;97.30;;;;;;5052851;28;21002;-86
2023/05/06 11:49:53;;;;;;;10.07;6.87;;;16.00;97.30;;;;;;5051362;28;20473;-86
2023/05/06 11:52:21;;;;;;;7.67;5.40;;;16.10;97.30;;;;;;5048724;28;20585;-85
2023/05/06 11:54:49;;;;;;;6.80;4.53;;;16.30;97.30;;;;;;5041891;28;20438;-86
2023/05/06 11:57:15;;;;;;;4.70;3.37;;;16.50;97.30;;;;;;5016598;28;20521;-86
2023/05/06 11:59:40;;;;;;;7.70;3.93;;;16.70;97.30;;;;;;5042079;28;20505;-86
2023/05/06 12:02:13;;;;;;;10.03;4.57;;;16.80;97.30;;;;;;5051484;28;20187;-86
2023/05/06 12:04:44;;;;;;;5.23;3.10;;;17.00;97.30;;;;;;5039764;28;20259;-86
2023/05/06 12:07:11;;;;;;;12.23;5.17;;;17.00;97.30;;;;;;5052356;28;20462;-85
2023/05/06 12:09:41;;;;;;;5.10;3.13;;;16.80;97.30;;;;;;5052412;28;20419;-85
2023/05/06 12:12:07;;;;;;;7.43;4.10;;;16.70;97.30;;;;;;5052849;28;20972;-87
2023/05/06 12:14:35;;;;;;;5.53;3.30;;;16.70;97.30;;;;;;5039338;28;20414;-86
2023/05/06 12:17:01;;;;;;;4.90;3.60;;;16.70;97.30;;;;;;5052437;28;20786;-86
2023/05/06 12:19:28;;;;;;;6.70;4.60;;;16.70;97.30;;;;;;5033709;28;20503;-86
2023/05/06 12:21:53;;;;;;;6.27;4.43;;;16.80;97.30;;;;;;5052000;28;20510;-86
2023/05/06 12:24:28;;;;;;;7.57;4.37;;;16.90;97.30;;;;;;5037261;28;21039;-87
2023/05/06 12:26:55;;;;;;;12.50;4.07;;;17.00;97.30;;;;;;5034370;28;20186;-86
2023/05/06 12:29:21;;;;;;;6.53;4.50;;;17.00;97.30;;;;;;5042751;28;20501;-86
2023/05/06 12:31:46;;;;;;;5.90;3.60;;;16.90;97.30;;;;;;5050936;28;20493;-86
2023/05/06 12:34:14;;;;;;;4.13;3.90;;;17.00;97.30;;;;;;5040757;28;20885;-85
2023/05/06 12:36:43;;;;;;;3.27;3.03;;;17.30;97.30;;;;;;5017588;28;20494;-86
2023/05/06 12:39:10;;;;;;;5.90;4.00;;;17.70;97.30;;;;;;5035737;28;20422;-86
2023/05/06 12:41:44;;;;;;;3.77;3.47;;;18.10;97.30;;;;;;5042390;28;20419;-85
2023/05/06 12:44:32;;;;;;;8.57;3.60;;;18.60;96.60;;;;;;5044070;28;20509;-86